Time;durP1;ratioP1;P1;durP2;ratioP2;P2;SDS_P1;SDS_P2;PMS_P1;PMS_P2;Temp;Humidity;BMP_temperature;BMP_pressure;BME280_temperature;BME280_humidity;BME280_pressure;Samples;Min_cycle;Max_cycle;Signal;HPM_P1;HPM_P2
2021/03/19 00:05:38;;;;;;;7.40;3.85;;;;;;;1.10;88.18;98614.06;1754026;78;21304;31
2021/03/19 00:08:25;;;;;;;9.73;4.33;;;;;;;0.99;89.57;98605.91;1702155;79;21270;31
2021/03/19 00:10:53;;;;;;;9.83;4.15;;;;;;;1.01;89.12;98610.16;1726036;77;21315;-79
2021/03/19 00:16:39;;;;;;;7.92;3.92;;;;;;;0.96;89.49;98603.32;1735157;79;21176;-81
2021/03/19 00:19:09;;;;;;;9.55;4.37;;;;;;;0.97;88.97;98605.02;1707479;78;21235;-80
2021/03/19 00:24:54;;;;;;;6.53;3.55;;;;;;;0.89;90.11;98600.71;1749867;79;21274;-83
2021/03/19 00:30:47;;;;;;;6.42;3.50;;;;;;;0.91;88.75;98598.58;1721984;80;21900;31
2021/03/19 00:33:24;;;;;;;5.40;3.37;;;;;;;0.85;89.17;98597.27;1696839;80;22509;31
2021/03/19 00:38:46;;;;;;;4.55;2.58;;;;;;;0.84;90.43;98585.34;1697654;78;21292;-78
2021/03/19 00:44:24;;;;;;;6.00;2.98;;;;;;;0.83;88.35;98581.05;1707219;80;23195;-79
2021/03/19 01:00:30;;;;;;;9.15;4.40;;;;;;;0.77;89.94;98583.15;1742750;79;21275;-77
2021/03/19 01:02:58;;;;;;;6.40;2.95;;;;;;;0.86;89.77;98579.81;1730665;77;21208;-78
2021/03/19 01:17:37;;;;;;;6.33;3.33;;;;;;;0.78;89.94;98577.63;1736160;79;21124;-82
2021/03/19 01:20:12;;;;;;;6.95;3.45;;;;;;;0.78;88.58;98578.48;1730597;78;21147;-82
2021/03/19 01:22:40;;;;;;;5.87;3.37;;;;;;;0.71;90.69;98578.00;1723623;79;21204;-77
2021/03/19 01:28:19;;;;;;;5.78;2.65;;;;;;;0.72;89.68;98577.59;1735975;79;21151;-81
2021/03/19 01:34:04;;;;;;;4.40;2.58;;;;;;;0.70;90.23;98572.90;1751799;77;21470;-81
2021/03/19 01:36:37;;;;;;;5.60;2.70;;;;;;;0.74;88.89;98571.64;1738752;77;21388;31
2021/03/19 01:42:14;;;;;;;4.33;2.55;;;;;;;0.74;90.97;98572.91;1747551;79;21178;-82
2021/03/19 02:52:57;;;;;;;3.47;1.90;;;;;;;0.34;92.76;98582.87;1733458;79;21657;-82
2021/03/19 03:08:05;;;;;;;4.67;2.50;;;;;;;0.45;91.49;98585.94;1739349;79;21158;-82
2021/03/19 03:10:36;;;;;;;5.08;2.50;;;;;;;0.43;91.99;98583.80;1724062;78;21250;-83
2021/03/19 03:19:32;;;;;;;3.70;2.00;;;;;;;0.28;92.52;98576.84;1708609;80;21094;31
2021/03/19 03:22:01;;;;;;;3.58;1.72;;;;;;;0.28;92.70;98571.73;1627206;81;21290;-83
2021/03/19 03:43:52;;;;;;;12.00;3.00;;;;;;;0.26;92.47;98576.86;1725099;78;21194;31
2021/03/19 03:46:40;;;;;;;15.53;4.65;;;;;;;0.20;93.51;98576.81;1740046;79;21197;31
2021/03/19 03:59:17;;;;;;;6.60;3.30;;;;;;;0.19;92.49;98572.09;1744059;79;21580;31
2021/03/19 04:21:08;;;;;;;8.40;3.10;;;;;;;0.21;93.50;98580.22;1727124;78;21226;-83
2021/03/19 04:23:43;;;;;;;8.45;3.08;;;;;;;0.23;92.62;98584.48;1724418;82;21165;-82
2021/03/19 04:39:15;;;;;;;4.65;2.62;;;;;;;0.11;93.25;98587.80;1754505;78;21208;31
2021/03/19 04:54:39;;;;;;;7.30;2.87;;;;;;;0.14;92.85;98592.06;1744061;78;21112;-80
2021/03/19 05:13:17;;;;;;;3.60;2.10;;;;;;;0.06;93.24;98609.05;1743792;78;22758;31
2021/03/19 05:18:46;;;;;;;5.42;2.92;;;;;;;0.02;93.84;98608.19;1744834;79;22566;-79
2021/03/19 05:21:15;;;;;;;5.12;2.87;;;;;;;0.14;92.65;98606.13;1723029;79;21216;-77
2021/03/19 05:33:13;;;;;;;6.50;2.50;;;;;;;0.18;92.92;98618.12;1749668;79;21169;31
2021/03/19 05:48:19;;;;;;;4.58;2.50;;;;;;;0.33;91.43;98628.45;1691984;79;21242;-82
2021/03/19 05:54:01;;;;;;;6.92;2.45;;;;;;;0.42;90.99;98625.14;1708084;81;21209;-81
2021/03/19 05:56:32;;;;;;;5.90;2.97;;;;;;;0.39;91.26;98628.94;1715032;80;21643;31
2021/03/19 05:59:00;;;;;;;5.30;2.58;;;;;;;0.44;91.37;98627.28;1683337;82;21254;-81
2021/03/19 06:01:28;;;;;;;8.78;2.67;;;;;;;0.37;91.68;98631.47;1703219;80;21409;-82
2021/03/19 06:04:01;;;;;;;8.45;3.37;;;;;;;0.43;91.53;98640.05;1667423;82;21148;-84
2021/03/19 06:07:00;;;;;;;5.17;2.50;;;;;;;0.48;91.48;98627.74;1686849;80;21281;31
2021/03/19 06:09:41;;;;;;;6.97;2.75;;;;;;;0.57;91.17;98638.02;1691515;81;21319;-83
2021/03/19 06:12:15;;;;;;;6.58;2.95;;;;;;;0.60;90.97;98634.66;1726025;81;21327;-83
2021/03/19 06:14:51;;;;;;;8.18;2.85;;;;;;;0.58;90.40;98642.31;1730680;81;21250;-80
2021/03/19 06:17:33;;;;;;;5.95;2.90;;;;;;;0.66;90.08;98651.33;1754448;81;21262;-80
2021/03/19 06:20:08;;;;;;;4.10;2.65;;;;;;;0.67;90.31;98647.06;1753648;80;21131;-84
2021/03/19 06:22:39;;;;;;;4.45;2.42;;;;;;;0.68;90.50;98648.79;1689671;79;21180;-81
2021/03/19 06:25:38;;;;;;;6.65;2.92;;;;;;;0.71;90.54;98653.91;1683193;82;21727;-81
2021/03/19 06:31:28;;;;;;;6.30;3.42;;;;;;;0.56;90.64;98645.28;1670716;84;21193;-81
2021/03/19 06:34:22;;;;;;;8.90;3.67;;;;;;;0.64;90.55;98659.41;1715183;81;21142;-84
2021/03/19 06:37:05;;;;;;;6.45;3.20;;;;;;;0.71;90.32;98656.04;1711366;82;22125;-81
2021/03/19 06:39:55;;;;;;;5.78;3.05;;;;;;;0.69;90.41;98667.11;1721688;83;21252;-82
2021/03/19 06:42:28;;;;;;;6.62;3.40;;;;;;;0.65;90.52;98674.33;1741278;81;21119;-83
2021/03/19 06:45:19;;;;;;;6.95;3.85;;;;;;;0.74;90.18;98674.42;1770199;81;21077;-80
2021/03/19 06:47:56;;;;;;;6.58;2.80;;;;;;;0.74;90.39;98673.98;1753955;80;21184;-83
2021/03/19 06:50:30;;;;;;;6.92;3.65;;;;;;;0.76;90.22;98668.45;1741804;80;21486;-82
2021/03/19 06:53:21;;;;;;;8.30;3.67;;;;;;;0.83;90.07;98673.19;1752091;81;21283;-81
2021/03/19 06:55:54;;;;;;;6.72;3.25;;;;;;;0.87;89.63;98674.92;1728343;81;21609;-81
2021/03/19 06:58:37;;;;;;;6.47;3.33;;;;;;;0.83;89.24;98678.30;1737776;83;21184;-83
2021/03/19 07:01:16;;;;;;;6.75;3.08;;;;;;;0.86;88.98;98677.06;1736341;81;21616;-83
2021/03/19 07:03:58;;;;;;;7.20;3.08;;;;;;;0.83;88.75;98683.85;1735031;83;21257;-81
2021/03/19 07:06:31;;;;;;;7.25;3.15;;;;;;;0.77;88.54;98679.54;1728467;81;21152;-81
2021/03/19 07:09:33;;;;;;;8.90;4.08;;;;;;;0.77;89.18;98683.37;1769078;80;22419;-83
2021/03/19 07:12:28;;;;;;;8.25;4.12;;;;;;;0.80;88.95;98684.70;1763455;80;21269;-83
2021/03/19 07:15:19;;;;;;;7.62;3.17;;;;;;;0.94;88.74;98695.88;1764304;79;21156;-82
2021/03/19 07:18:06;;;;;;;8.10;3.52;;;;;;;0.97;88.67;98697.59;1760967;80;21195;-83
2021/03/19 07:21:04;;;;;;;7.70;3.70;;;;;;;0.96;88.30;98695.47;1708588;83;21142;-80
2021/03/19 07:23:49;;;;;;;10.05;3.75;;;;;;;1.02;87.94;98701.48;1704411;83;21333;-83
2021/03/19 07:26:19;;;;;;;7.37;3.45;;;;;;;1.16;87.46;98714.80;1763758;81;21230;-81
2021/03/19 07:29:39;;;;;;;5.80;3.55;;;;;;;1.13;87.50;98705.80;1733931;80;21181;-83
2021/03/19 07:32:48;;;;;;;7.45;3.47;;;;;;;1.12;87.65;98708.38;1760683;80;21212;-82
2021/03/19 07:39:08;;;;;;;7.65;4.08;;;;;;;1.29;87.19;98718.71;1732367;78;21303;-83
2021/03/19 07:41:47;;;;;;;8.43;4.33;;;;;;;1.27;87.10;98716.14;1694209;82;21293;-80
2021/03/19 07:44:35;;;;;;;8.58;4.42;;;;;;;1.34;86.65;98720.45;1651536;81;21233;-78
2021/03/19 07:47:24;;;;;;;8.08;4.28;;;;;;;1.44;86.18;98722.66;1625134;86;21209;-77
2021/03/19 07:50:23;;;;;;;7.28;4.37;;;;;;;1.42;85.90;98722.22;1630464;86;21234;-77
2021/03/19 07:53:12;;;;;;;9.33;4.37;;;;;;;1.35;86.46;98735.00;1634599;86;21206;-78
2021/03/19 07:56:03;;;;;;;12.37;4.70;;;;;;;1.43;86.51;98731.17;1640865;86;21142;-77
2021/03/19 07:58:41;;;;;;;9.73;4.85;;;;;;;1.47;86.95;98732.05;1644155;86;21189;-77
2021/03/19 08:01:20;;;;;;;10.18;4.67;;;;;;;1.49;87.18;98739.32;1626548;86;21205;-77
2021/03/19 08:04:27;;;;;;;10.38;5.33;;;;;;;1.50;86.91;98739.77;1645476;85;21185;-77
2021/03/19 08:06:57;;;;;;;9.58;5.00;;;;;;;1.59;86.70;98743.64;1616768;86;21196;-81
2021/03/19 08:10:03;;;;;;;9.60;5.10;;;;;;;1.45;86.22;98736.31;1649282;82;21273;-81
2021/03/19 08:13:00;;;;;;;9.45;4.75;;;;;;;1.53;86.06;98741.05;1693944;84;21236;-78
2021/03/19 08:15:42;;;;;;;14.25;4.50;;;;;;;1.65;85.67;98741.14;1678293;84;21308;-79
2021/03/19 08:18:27;;;;;;;9.93;4.78;;;;;;;1.50;85.92;98743.61;1671135;85;21641;-82
2021/03/19 08:21:25;;;;;;;8.90;4.40;;;;;;;1.50;85.61;98745.74;1658951;85;21327;-82
2021/03/19 08:24:10;;;;;;;9.53;4.65;;;;;;;1.43;86.06;98740.56;1663157;85;21167;-80
2021/03/19 08:26:43;;;;;;;11.38;5.67;;;;;;;1.64;85.61;98738.56;1638306;84;21167;-84
2021/03/19 08:29:30;;;;;;;13.85;6.40;;;;;;;1.55;86.01;98750.87;1670646;81;21120;-84
2021/03/19 08:32:23;;;;;;;10.65;5.60;;;;;;;1.63;86.16;98749.21;1664959;85;21183;-83
2021/03/19 08:35:16;;;;;;;9.50;5.53;;;;;;;1.56;85.29;98741.08;1706903;84;21285;-83
2021/03/19 08:37:52;;;;;;;10.25;4.60;;;;;;;1.48;84.71;98741.47;1658869;86;21163;-82
2021/03/19 08:40:37;;;;;;;10.35;5.03;;;;;;;1.59;85.52;98735.95;1656922;86;21472;-82
2021/03/19 08:43:13;;;;;;;8.85;4.80;;;;;;;1.47;84.48;98722.66;1689012;84;21241;-85
2021/03/19 08:45:41;;;;;;;9.50;4.80;;;;;;;1.74;84.95;98748.85;1710162;83;21284;-83
2021/03/19 08:48:14;;;;;;;13.58;6.03;;;;;;;1.79;84.39;98746.30;1739140;80;21300;-79
2021/03/19 08:50:44;;;;;;;9.65;5.28;;;;;;;1.67;84.62;98740.72;1768627;79;21130;-87
2021/03/19 08:53:23;;;;;;;10.10;5.42;;;;;;;1.85;84.18;98749.32;1755341;80;21209;-83
2021/03/19 08:56:01;;;;;;;10.35;5.00;;;;;;;1.98;83.10;98754.94;1767854;79;21165;-79
2021/03/19 08:58:34;;;;;;;10.60;5.85;;;;;;;1.94;83.60;98759.63;1761984;79;21279;-80
2021/03/19 09:01:09;;;;;;;12.82;4.92;;;;;;;1.97;82.84;98754.52;1756715;78;22570;31
2021/03/19 09:23:46;;;;;;;9.75;4.83;;;;;;;2.31;82.55;98761.90;1637324;82;21220;-87
2021/03/19 09:34:02;;;;;;;11.30;6.47;;;;;;;2.36;82.12;98761.90;1655570;83;21177;-87
2021/03/19 09:37:52;;;;;;;13.98;5.90;;;;;;;2.43;81.48;98769.17;1692563;83;21166;-81
2021/03/19 09:40:48;;;;;;;18.98;6.70;;;;;;;2.43;82.15;98744.80;1673809;83;21526;-81
2021/03/19 09:43:46;;;;;;;14.13;6.85;;;;;;;2.40;81.01;98763.62;1669343;82;21347;-89
2021/03/19 09:46:44;;;;;;;9.25;5.10;;;;;;;2.44;81.92;98764.48;1666125;80;21234;-90
2021/03/19 09:49:26;;;;;;;9.30;5.45;;;;;;;2.42;81.71;98765.76;1658909;86;21200;-87
2021/03/19 09:52:16;;;;;;;11.45;6.22;;;;;;;2.31;81.85;98768.75;1643804;84;21105;-85
2021/03/19 09:55:23;;;;;;;11.33;5.97;;;;;;;2.33;82.49;98773.02;1692203;82;21190;-85
2021/03/19 09:58:42;;;;;;;10.80;6.42;;;;;;;2.46;82.60;98775.61;1734892;80;21227;-87
2021/03/19 10:01:41;;;;;;;11.18;5.95;;;;;;;2.58;83.40;98779.05;1798988;78;23158;-86
2021/03/19 10:04:15;;;;;;;12.68;6.30;;;;;;;2.43;82.79;98785.85;1765830;78;21137;-83
2021/03/19 10:06:48;;;;;;;10.60;5.35;;;;;;;2.61;82.48;98778.22;1783198;80;21299;-83
2021/03/19 10:09:23;;;;;;;14.27;5.33;;;;;;;2.59;82.78;98783.77;1755839;81;21246;-84
2021/03/19 10:11:59;;;;;;;17.35;7.40;;;;;;;2.48;83.07;98786.73;1709442;81;21153;-83
2021/03/19 10:14:41;;;;;;;11.83;5.45;;;;;;;2.52;83.12;98789.30;1706860;81;21326;-88
2021/03/19 10:17:29;;;;;;;10.23;5.33;;;;;;;2.55;83.29;98791.04;1679523;84;21162;-88
2021/03/19 10:20:14;;;;;;;10.32;5.37;;;;;;;2.68;82.87;98794.04;1682073;84;21155;-86
2021/03/19 10:22:53;;;;;;;12.00;6.00;;;;;;;2.27;83.36;98793.92;1688301;83;21152;-85
2021/03/19 10:25:29;;;;;;;11.88;5.70;;;;;;;2.38;84.02;98793.55;1686640;84;21739;-87
2021/03/19 10:28:11;;;;;;;13.35;6.37;;;;;;;2.35;83.93;98790.98;1669765;84;22041;-88
2021/03/19 10:31:11;;;;;;;9.33;4.90;;;;;;;2.23;84.64;98796.94;1669312;85;21594;-82
2021/03/19 10:33:59;;;;;;;11.20;5.72;;;;;;;2.26;84.07;98807.62;1688455;84;21188;-80
2021/03/19 10:47:15;;;;;;;13.72;6.37;;;;;;;2.47;84.20;98802.56;1790368;78;23034;-89
2021/03/19 10:50:22;;;;;;;10.72;5.67;;;;;;;2.43;84.15;98805.98;1759364;78;21161;-82
2021/03/19 10:53:12;;;;;;;11.53;5.58;;;;;;;2.48;83.93;98797.00;1767670;80;21277;-80
2021/03/19 10:55:45;;;;;;;11.57;5.67;;;;;;;2.33;84.48;98810.66;1675648;84;21331;-83
2021/03/19 10:58:34;;;;;;;10.93;5.85;;;;;;;2.43;84.62;98807.26;1636929;86;21331;-83
2021/03/19 11:01:34;;;;;;;11.03;5.87;;;;;;;2.24;84.22;98810.61;1639765;86;21317;-82
2021/03/19 11:04:35;;;;;;;11.48;6.20;;;;;;;2.37;84.44;98812.37;1636244;86;21298;-82
2021/03/19 11:07:21;;;;;;;12.07;6.50;;;;;;;2.28;83.99;98807.20;1641863;87;21172;-83
2021/03/19 11:10:26;;;;;;;13.72;6.70;;;;;;;2.32;84.46;98807.64;1647636;86;21142;-83
2021/03/19 11:13:11;;;;;;;13.13;7.05;;;;;;;2.27;85.21;98815.73;1607625;87;21217;-85
2021/03/19 11:15:43;;;;;;;10.40;5.55;;;;;;;2.33;83.89;98795.26;1637730;87;21177;-83
2021/03/19 11:18:38;;;;;;;10.50;5.58;;;;;;;2.22;83.84;98804.18;1642849;87;21109;-82
2021/03/19 11:21:11;;;;;;;13.08;6.30;;;;;;;2.11;84.41;98809.28;1630550;86;21280;-81
2021/03/19 11:23:46;;;;;;;10.82;6.03;;;;;;;2.13;84.81;98801.17;1636794;88;21201;-86
2021/03/19 11:26:28;;;;;;;12.10;6.25;;;;;;;2.14;84.47;98795.17;1632290;88;21228;-82
2021/03/19 11:29:17;;;;;;;11.28;6.55;;;;;;;2.10;85.18;98805.42;1636295;86;21201;-81
2021/03/19 11:32:08;;;;;;;13.55;6.80;;;;;;;2.19;85.18;98801.19;1631827;86;21165;-81
2021/03/19 11:34:50;;;;;;;11.15;6.37;;;;;;;2.24;84.35;98805.05;1636744;85;21163;-84
2021/03/19 11:37:27;;;;;;;13.48;7.25;;;;;;;2.11;84.65;98800.30;1639996;85;21255;-83
2021/03/19 11:40:13;;;;;;;15.70;6.78;;;;;;;2.26;84.20;98808.91;1640969;86;21253;-85
2021/03/19 11:42:49;;;;;;;15.50;6.78;;;;;;;2.30;84.01;98809.34;1691537;80;21288;-81
2021/03/19 11:45:21;;;;;;;12.50;6.85;;;;;;;2.23;84.67;98815.29;1716521;82;21176;-84
2021/03/19 11:48:04;;;;;;;15.10;6.42;;;;;;;2.38;84.24;98809.78;1694194;82;21260;-83
2021/03/19 11:50:38;;;;;;;15.20;6.33;;;;;;;2.35;83.21;98803.38;1680438;85;21209;-83
2021/03/19 11:53:13;;;;;;;13.38;7.10;;;;;;;2.46;83.73;98804.69;1704184;83;21303;-84
2021/03/19 11:55:46;;;;;;;13.22;7.20;;;;;;;2.54;83.57;98806.84;1687220;83;21280;-81
2021/03/19 11:58:17;;;;;;;11.60;6.87;;;;;;;2.53;83.70;98801.30;1690698;83;21288;-81
2021/03/19 12:00:46;;;;;;;14.13;6.97;;;;;;;2.62;82.36;98805.58;1711668;83;21299;-84
2021/03/19 12:03:42;;;;;;;14.98;7.20;;;;;;;2.74;82.12;98807.31;1694761;83;21338;-84
2021/03/19 12:06:14;;;;;;;14.47;6.92;;;;;;;2.70;81.88;98805.59;1696223;83;21171;-83
2021/03/19 12:08:50;;;;;;;14.38;6.97;;;;;;;2.64;82.09;98805.59;1651098;83;21240;-84
2021/03/19 12:11:35;;;;;;;11.30;6.10;;;;;;;2.88;82.38;98818.45;1689069;83;21307;-83
2021/03/19 12:14:29;;;;;;;11.75;6.12;;;;;;;2.91;81.36;98808.20;1663384;85;21264;-81
2021/03/19 12:16:59;;;;;;;11.73;6.90;;;;;;;2.97;81.07;98816.34;1673538;85;21217;-83
2021/03/19 12:19:28;;;;;;;13.48;7.20;;;;;;;3.08;81.63;98814.63;1637249;86;21154;-82
2021/03/19 12:21:57;;;;;;;12.88;7.28;;;;;;;3.01;80.03;98814.64;1646935;86;21181;-81
2021/03/19 12:24:27;;;;;;;13.25;6.85;;;;;;;3.08;80.23;98813.34;1652310;85;21157;-83
2021/03/19 12:26:56;;;;;;;12.15;7.00;;;;;;;3.10;79.59;98815.91;1641529;86;21162;-84
2021/03/19 12:29:26;;;;;;;15.32;7.67;;;;;;;3.16;79.72;98815.52;1660050;85;21289;-82
2021/03/19 12:31:58;;;;;;;11.55;6.55;;;;;;;3.20;79.12;98820.19;1675388;85;21293;-84
2021/03/19 12:34:32;;;;;;;14.87;7.10;;;;;;;3.22;79.36;98826.63;1668724;85;21625;-84
2021/03/19 12:37:05;;;;;;;12.53;6.75;;;;;;;3.34;79.19;98826.21;1660604;86;21536;-84
2021/03/19 12:39:37;;;;;;;15.95;7.33;;;;;;;3.31;79.72;98823.62;1687640;82;21452;-85
2021/03/19 12:42:07;;;;;;;13.13;5.87;;;;;;;3.40;79.58;98812.48;1673625;85;21197;-82
2021/03/19 12:44:40;;;;;;;14.10;6.75;;;;;;;3.41;79.80;98828.78;1684501;83;21158;-83
2021/03/19 12:47:34;;;;;;;13.80;6.70;;;;;;;3.47;79.77;98824.91;1663043;84;21087;-85
2021/03/19 12:50:27;;;;;;;13.35;6.80;;;;;;;3.38;78.90;98815.48;1680943;82;21289;-82
2021/03/19 12:53:09;;;;;;;11.10;5.85;;;;;;;3.35;77.59;98829.63;1686242;80;21881;-87
2021/03/19 12:56:11;;;;;;;11.28;6.20;;;;;;;3.39;76.36;98834.76;1679186;84;21301;-85
2021/03/19 12:58:55;;;;;;;12.20;6.17;;;;;;;3.47;77.70;98828.33;1672477;80;21210;-88
2021/03/19 13:01:26;;;;;;;12.35;6.30;;;;;;;3.49;77.09;98827.05;1636280;87;21230;-85
2021/03/19 13:03:57;;;;;;;12.03;6.53;;;;;;;3.53;76.23;98828.77;1638447;84;21253;-83
2021/03/19 13:06:27;;;;;;;10.00;6.20;;;;;;;3.47;75.79;98832.19;1636807;88;21170;-83
2021/03/19 13:08:58;;;;;;;13.68;6.33;;;;;;;3.47;75.67;98832.63;1638004;86;21188;-80
2021/03/19 13:11:31;;;;;;;14.43;6.08;;;;;;;3.42;74.60;98837.75;1630149;88;21283;-81
2021/03/19 13:14:07;;;;;;;11.88;5.10;;;;;;;3.52;76.41;98831.77;1648218;81;21261;-81
2021/03/19 13:17:02;;;;;;;11.57;5.95;;;;;;;3.50;76.51;98835.17;1661087;83;21605;-79
2021/03/19 13:19:33;;;;;;;10.53;6.15;;;;;;;3.54;76.79;98836.48;1689355;85;21328;-82
2021/03/19 13:22:09;;;;;;;15.35;7.20;;;;;;;3.58;74.85;98847.59;1679978;85;21304;-81
2021/03/19 13:24:44;;;;;;;19.62;10.72;;;;;;;3.59;75.70;98848.88;1679209;83;21173;-86
2021/03/19 13:27:20;;;;;;;14.55;8.63;;;;;;;3.51;77.29;98849.31;1702574;82;21446;-87
2021/03/19 13:30:26;;;;;;;16.35;9.95;;;;;;;3.46;77.50;98855.31;1705338;82;21194;-89
2021/03/19 13:33:31;;;;;;;18.50;10.60;;;;;;;3.31;78.18;98858.32;1697596;80;21314;-88
2021/03/19 13:36:17;;;;;;;16.62;9.45;;;;;;;3.19;78.84;98855.75;1678179;84;21178;-80
2021/03/19 13:38:55;;;;;;;18.70;9.65;;;;;;;3.17;79.47;98860.03;1702549;81;21151;-84
2021/03/19 13:41:23;;;;;;;18.75;10.13;;;;;;;3.16;79.23;98861.75;1750425;81;21325;-84
2021/03/19 13:43:52;;;;;;;16.57;8.58;;;;;;;3.10;80.78;98866.00;1729147;82;22120;-85
2021/03/19 13:46:24;;;;;;;15.30;8.13;;;;;;;3.10;80.29;98858.30;1729937;82;21233;-85
2021/03/19 13:51:57;;;;;;;17.40;8.60;;;;;;;3.08;80.91;98869.84;1755337;81;21259;-84
2021/03/19 14:00:53;;;;;;;22.17;11.33;;;;;;;3.01;81.52;98871.14;1652854;80;21125;-87
2021/03/19 14:03:43;;;;;;;16.45;9.73;;;;;;;3.03;81.50;98865.58;1721923;79;21291;-84
2021/03/19 14:06:28;;;;;;;23.12;10.68;;;;;;;3.09;81.14;98878.00;1752575;81;21218;-87
2021/03/19 14:09:37;;;;;;;19.17;9.50;;;;;;;3.02;82.45;98879.27;1739202;79;21301;-89
2021/03/19 14:12:14;;;;;;;14.05;6.78;;;;;;;3.02;82.22;98880.11;1738069;82;21150;-89
2021/03/19 14:15:22;;;;;;;18.60;8.60;;;;;;;3.04;81.39;98872.42;1743440;81;21282;-81
2021/03/19 14:18:17;;;;;;;19.07;9.48;;;;;;;3.06;81.97;98875.41;1699294;81;21188;-86
2021/03/19 14:20:55;;;;;;;25.57;11.05;;;;;;;3.16;82.22;98878.85;1729527;83;21181;-84
2021/03/19 14:23:45;;;;;;;18.37;8.55;;;;;;;3.31;82.23;98873.73;1675681;83;21147;-82
2021/03/19 14:26:37;;;;;;;23.50;10.53;;;;;;;3.47;82.05;98877.17;1717989;78;21226;-83
2021/03/19 14:29:08;;;;;;;18.32;10.23;;;;;;;3.67;81.62;98873.30;1681163;80;21294;-87
2021/03/19 14:31:47;;;;;;;19.32;9.60;;;;;;;3.82;81.85;98868.98;1718589;82;21324;-89
2021/03/19 14:35:07;;;;;;;19.32;10.85;;;;;;;4.03;81.77;98868.95;1688255;84;21216;-82
2021/03/19 14:37:43;;;;;;;25.80;12.25;;;;;;;4.20;80.81;98867.64;1670840;84;21145;-86
2021/03/19 14:41:02;;;;;;;20.57;10.00;;;;;;;4.42;81.24;98867.53;1661713;85;21171;-88
2021/03/19 14:43:59;;;;;;;45.80;21.12;;;;;;;4.46;79.48;98876.55;1712345;82;21446;-91
2021/03/19 14:47:11;;;;;;;30.05;13.75;;;;;;;4.57;79.80;98873.48;1717695;76;21363;-87
2021/03/19 14:50:29;;;;;;;18.75;10.05;;;;;;;4.73;79.42;98878.13;1716751;80;21097;-84
2021/03/19 14:54:01;;;;;;;16.77;8.75;;;;;;;4.87;79.86;98876.77;1677517;84;21394;-90
2021/03/19 14:57:09;;;;;;;17.35;8.90;;;;;;;4.76;78.24;98885.00;1700943;77;21328;-88
2021/03/19 14:59:45;;;;;;;14.10;7.30;;;;;;;4.67;77.90;98881.17;1697707;83;21150;-82
2021/03/19 15:03:05;;;;;;;9.48;6.17;;;;;;;4.69;78.69;98886.73;1721008;78;21146;-91
2021/03/19 15:06:16;;;;;;;20.52;10.28;;;;;;;4.56;76.98;98884.66;1578846;89;21355;-90
2021/03/19 15:13:01;;;;;;;21.52;10.25;;;;;;;4.72;76.53;98891.03;1647810;84;21166;-90
2021/03/19 15:16:21;;;;;;;17.92;8.80;;;;;;;5.04;78.06;98886.14;1707696;80;21257;-89
2021/03/19 15:19:41;;;;;;;;;;;;;;;;;;;;;
2021/03/19 15:28:54;;;;;;;11.40;6.42;;;;;;;6.60;73.04;98893.34;1742462;79;21145;-86
2021/03/19 15:38:48;;;;;;;;;;;;;;;5.58;72.24;98911.94;1737301;80;21132;-92
2021/03/19 15:41:43;;;;;;;13.55;7.83;;;;;;;5.23;72.81;98920.36;1705971;83;20200;-90
2021/03/19 15:47:22;;;;;;;12.95;6.35;;;;;;;4.67;74.04;98924.95;1685091;84;21745;-91
2021/03/19 19:06:13;;;;;;;50.10;18.50;;;;;;;0.49;87.07;99105.20;1756064;78;21149;-81
2021/03/19 22:01:26;;;;;;;81.03;30.13;;;;;;;-0.76;89.65;99219.98;1634631;83;21271;31
2021/03/19 22:50:55;;;;;;;30.32;14.03;;;;;;;-0.52;88.52;99252.84;1697028;79;21196;-85
2021/03/19 23:01:09;;;;;;;39.35;17.50;;;;;;;-0.62;89.12;99251.78;1742187;78;21237;-83
2021/03/19 23:24:11;;;;;;;34.05;14.78;;;;;;;-0.82;88.80;99275.58;1706703;79;23027;-83
